Aeroporto :
LOGIN :

Iscrizione | Disclaimer

   EN    FR    IT 

 










Sommario :    VFR   VFR Marginale   IFR   IFR Intensivo   IFR Molto Intensivo
Visibilità : 
Base nubi : 
>= 8 km
>= 3000ft
5 / 8 km
1000 / 3000 ft
1500m / 5 km
500 / 1000 ft
800 / 1500m
200 / 500 ft
< 800m
< 200 ft
Simboli :   Temporali  Nebbia  Neve Forte  Precipitazioni Forti  Vento > 20 kt
SIGMETs :   Varie  Temporali  Ghiacco  Turbolenza  Onda orograficha  Ceneri Vulcaniche






- Altitudine del aeroporto : 14 ft
- Codice IATA : BRE


EDDW - Bremen Neuenland

ULTIMO METAR :
  • 112220Z 21004KT 4500 BR BKN006 BKN018 05/04 Q1003

METARs OBSOLETI :
  • 112150Z 21006KT 4200 BR BKN003 BKN018 05/05 Q1003
  • 112120Z 22005KT 3500 BR BKN003 05/05 Q1003
  • 112050Z 22005KT 4500 BR BKN003 05/05 Q1003 BECMG BKN007
  • 112020Z 21005KT 5000 BR BKN004 05/05 Q1003 BECMG BKN007
  • 111950Z 20005KT 5000 BR BKN004 05/04 Q1003 BECMG BKN007

TAF AMD TAF EDDW
Valido dal 11 a 22 ore il 12 a 18 ore UTC


112202Z 1122/1218 19007KT 9000 BKN006
TEMPO 1122/1124 2500 -RADZ BKN004
TEMPO 1200/1209 3500 BR SCT008 BKN012
BECMG 1208/1211 SCT012 BKN015
BECMG 1215/1218 13007KT



MetMap, La meteo Aeronautica in un colpo d'occhio ! - Copyright ORBIFLY Dicembre 2007 - Disclaimer

ORBIFLY MET'MAP TEAM :

Programmazione e sviluppo : Alexandra Zaïnal
Concezione : Baudouin d'Aumeries
Aiuto per la programmazione : Marc-Olivier Méhu
Supporto tecnico e logistico : Manuel Goepfert
Aiuto per la traduzione : Arnaldo La Scala

Contatto : metmap@orbifly.com




FONTI E CREDITI :

   NOAA